NWS Home NWS Lubbock West Texas Mesonet North Sector Latest Conditions as of 0446 AM, Sat May 26, 2018

Latest   N   C   S   Daily Sum   3hrΔ   24hrΔ   Soil Data 
Site Map   24hr Precip   72hr Precip   Google Plot


Station Time of Last Temp Dew Pt. RH Wind Direction Wind Speed Wind Gust Max Wind Max Temp Min Temp Max RH Min RH Altimeter 1HR Rain Today's Rain Solar Rad
Adrian 6WSW  04:40 AM 61 47 60% S1515 25 mph 142° @ 0207 AM 74 61 60 22 29.93" 0 0.00 0
Aiken 3WSW  04:40 AM 67 56 68% S1213 32 mph 147° @ 0103 AM 75 67 68 41 29.92" 0 0.00 0
Amarillo 15NNW   04:40 AM 60 53 76% NE88 17 mph 146° @ 0105 AM 73 60 76 52 29.91" 0 0.00 0
Amarillo 7SSE  04:40 AM 61 51 69% SE77 20 mph 160° @ 0253 AM 70 61 69 45 29.94" 0 0.00 0
Amarillo 9NNE  04:40 AM 63 52 66% S44 19 mph 158° @ 0104 AM 71 63 66 50 29.90" 0 0.00 0
Amherst 1NE  04:40 AM 65 52 65% S1012 19 mph 86° @ 0135 AM 71 63 65 24 29.92" 0 0.00 0
Bootleg 11WNW  04:35 AM 58 41 54% S78 16 mph 109° @ 0135 AM 66 57 56 34 29.96" 0 0.00 0
Boys Ranch 1WSW  04:40 AM 63 54 74% N00 8 mph 70° @ 0349 AM 70 62 93 65 29.90" 0 0.00 0
Canadian 6E  04:40 AM 65 64 97% SE55 13 mph 103° @ 1238 AM 72 65 97 88 29.87" 0 0.00 0
Caprock Canyons State Park  04:40 AM 67 59 77% N34 21 mph 187° @ 0140 AM 74 66 77 46 29.88" 0 0.00 0
Childress 2NNE  04:40 AM 67 57 73% E67 13 mph 196° @ 0140 AM 71 67 76 63 29.86" 0 0.00 0
Clarendon 2WSW  04:40 AM 62 54 76% SE46 14 mph 168° @ 1220 AM 72 62 78 61 29.90" 0 0.00 0
Claude 12SW  04:40 AM 67 52 59% SE911 18 mph 170° @ 0220 AM 72 67 59 47 29.92" 0 0.00 0
Dimmitt 2NE  04:40 AM 59 51 76% S1011 18 mph 91° @ 0120 AM 74 59 76 22 29.92" 0 0.00 0
Dozier 3W  04:40 AM 66 66 97% E44 9 mph 22° @ 0151 AM 74 66 97 86 29.89" 0 0.00 0
Earth 9WSW  04:40 AM 60 45 57% SE1112 15 mph 41° @ 0141 AM 69 57 68 33 29.92" 0 0.00 0
Endee NM 2SW  04:40 AM 62 40 44% SW45 12 mph 161° @ 0259 AM 68 58 56 34 29.92" 0 0.00 0
Estelline 3SSE  04:40 AM 66 59 79% E34 13 mph 187° @ 1226 AM 75 65 80 48 29.85" 0 0.00 0
Floydada 2NNE  04:40 AM 67 57 72% S1215 26 mph 141° @ 1235 AM 73 67 72 46 29.90" 0 0.00 0
Friona 2NE  04:40 AM 60 43 56% S69 13 mph 47° @ 1245 AM 67 59 61 34 29.93" 0 0.00 0
Fritch 1WNW  04:40 AM 63 54 72% E56 16 mph 192° @ 0119 AM 73 63 72 49 29.91" 0 0.00 0
Goodlett 3W  04:40 AM 69 57 68% NE45 13 mph 197° @ 0125 AM 73 66 80 56 29.84" 0 0.00 0
Goodnight  04:40 AM 61 54 79% E33 19 mph 167° @ 1235 AM 73 61 79 47 29.93" 0 0.00 0
Happy 1E  04:40 AM 59 51 73% S78 14 mph 85° @ 1217 AM 69 58 77 47 29.92" 0 0.00 0
Hart 3N  04:40 AM 63 54 72% S912 21 mph 127° @ 0150 AM 70 63 72 30 29.92" 0 0.00 0
Hereford 2NW  04:40 AM 60 47 65% S67 17 mph 148° @ 0240 AM 75 60 65 22 29.92" 0 0.00 0
Lesley 2S  04:40 AM 67 57 68% E88 13 mph 98° @ 0339 AM 74 67 68 49 29.86" 0 0.00 0
McLean 1E  04:40 AM 66 61 88% SE810 11 mph 115° @ 0245 AM 71 65 92 75 29.89" 0 0.00 0
Memphis 1NE  04:40 AM 64 59 86% NE22 6 mph 39° @ 0230 AM 71 64 91 70 29.86" 0 0.00 0
Muleshoe 2SSW  04:40 AM 64 42 45% S912 13 mph 57° @ 0220 AM 65 53 77 43 29.91" 0 0.00 0
Northfield 1S  04:40 AM 69 57 68% E56 26 mph 192° @ 0145 AM 73 69 68 51 29.85" 0 0.00 0
Odell 4ENE  04:40 AM 66 62 87% NE44 16 mph 39° @ 1257 AM 74 66 88 63 29.85" 0 0.00 0
Olton 6S  04:40 AM 61 52 75% SE1011 21 mph 136° @ 0140 AM 73 61 75 24 29.92" 0 0.00 0
Palo Duro 4E (JA Ranch)  04:40 AM 57 53 85% NW22 8 mph 10° @ 0237 AM 64 57 85 69 29.89" 0 0.00 0
Palo Duro Canyon SP Floor  04:40 AM 69 53 57% SE57 17 mph 139° @ 1226 AM 77 68 57 42 29.89" 0 0.00 0
Palo Duro Canyon State Park Rim  04:40 AM 66 52 59% SE57 19 mph 149° @ 1232 AM 76 66 59 41 29.93" 0 0.00 0
Pampa 2E  04:40 AM 63 62 98% SE1012 16 mph 132° @ 0355 AM 68 63 98 66 29.91" 0 0.00 0
Panhandle 1SSW  04:40 AM 62 53 73% SE89 22 mph 146° @ 0100 AM 71 59 79 50 29.93" 0 0.00 0
Plainview 1S  04:40 AM 65 56 73% S711 23 mph 164° @ 0240 AM 74 65 73 42 29.91" 0 0.00 0
Silverton 7ESE  04:40 AM 65 55 72% S57 24 mph 157° @ 0110 AM 74 65 72 45 29.90" 0 0.00 0
Stinnett 1NNW  04:40 AM 63 58 83% SE56 12 mph 91° @ 1223 AM 70 63 83 59 29.92" 0 0.00 0
Tulia 2ENE  04:40 AM 64 55 75% S1013 23 mph 121° @ 1240 AM 71 61 79 54 29.91" 0 0.00 0
Turkey 2WSW  04:40 AM 69 58 70% E22 20 mph 165° @ 0115 AM 76 68 71 48 29.86" 0 0.00 0
Umbarger 3NNE  04:40 AM 63 50 63% SW77 20 mph 146° @ 0227 AM 72 63 63 37 29.92" 0 0.00 0
Vigo Park  04:40 AM 63 54 74% SE22 19 mph 162° @ 0158 AM 72 62 74 50 29.92" 0 0.00 0

West Texas Mesonet Home   Site Map/Menu  NWS Lubbock Soil Data  Daily Summary Page  24hr Precip  72hr Precip  Google Plot